Terminal Aerodrome Forecast
Issued by NWS

Home | Current Version | Previous Version | Text Only | Print | Product List | Glossary On
Versions: 1 2 3 4 5 6 7 8 9 10 11 12 13 14 15 16 17 18 19 20 21 22 23 24 25
000
FTPA31 PHFO 221100
TAFLIH
TAF
PHLI 221139Z 2212/2312 01013G20KT P6SM VCSH FEW010 SCT020 OVC050
      TEMPO 2212/2216 5SM -SHRA SCT010 BKN020
     FM221800 02020G30KT P6SM VCSH SCT025 BKN050 OVC080
     FM230500 02016G25KT P6SM VCSH SCT025 BKN060=

USA.gov is the U.S. government's official web portal to all federal, state and local government web resources and services.